createdAt,value
2023-04-09T00:02:31.391Z,24.10
2023-04-09T00:05:15.491Z,23.83
2023-04-09T00:07:58.168Z,18.17
2023-04-09T00:10:40.907Z,17.15
2023-04-09T00:13:35.553Z,16.70
2023-04-09T00:16:20.922Z,15.70
2023-04-09T00:19:03.581Z,16.40
2023-04-09T00:21:48.300Z,16.40
2023-04-09T00:24:30.939Z,15.93
2023-04-09T00:27:13.577Z,20.15
2023-04-09T00:29:56.451Z,21.13
2023-04-09T00:32:39.186Z,15.85
2023-04-09T00:35:21.926Z,13.93
2023-04-09T00:38:05.887Z,20.13
2023-04-09T00:40:49.944Z,21.85
2023-04-09T00:43:32.578Z,15.60
2023-04-09T00:46:16.193Z,15.07
2023-04-09T00:48:58.964Z,23.75
2023-04-09T00:51:41.557Z,21.17
2023-04-09T00:54:25.601Z,17.73
2023-04-09T00:57:08.205Z,17.15
2023-04-09T00:59:50.861Z,16.83
2023-04-09T01:02:33.599Z,19.02
2023-04-09T01:05:16.672Z,17.75
2023-04-09T01:08:02.817Z,16.17
2023-04-09T01:10:49.850Z,16.05
2023-04-09T01:13:36.480Z,24.52
2023-04-09T01:16:20.282Z,18.23
2023-04-09T01:19:09.534Z,17.58
2023-04-09T01:21:53.490Z,18.95
2023-04-09T01:24:42.579Z,16.25
2023-04-09T01:27:30.313Z,23.35
2023-04-09T01:30:18.983Z,24.10
2023-04-09T01:33:02.193Z,17.45
2023-04-09T01:35:45.790Z,20.10
2023-04-09T01:38:28.756Z,20.80
2023-04-09T01:41:13.000Z,20.17
2023-04-09T01:43:56.564Z,19.77
2023-04-09T01:46:41.916Z,20.65
2023-04-09T01:49:24.834Z,19.80
2023-04-09T01:52:07.850Z,19.00
2023-04-09T01:54:50.664Z,18.00
2023-04-09T01:57:33.387Z,19.48
2023-04-09T02:00:16.420Z,18.88
2023-04-09T02:03:06.234Z,17.75
2023-04-09T02:05:52.232Z,18.20
2023-04-09T02:08:35.593Z,18.00
2023-04-09T02:11:19.945Z,18.52
2023-04-09T02:14:02.759Z,19.75
2023-04-09T02:16:46.585Z,17.33
2023-04-09T02:19:40.574Z,19.08
2023-04-09T02:22:23.544Z,16.67
2023-04-09T02:25:06.951Z,18.42
2023-04-09T02:27:49.845Z,16.25
2023-04-09T02:30:32.648Z,17.42
2023-04-09T02:33:15.344Z,17.13
2023-04-09T02:35:59.295Z,17.75
2023-04-09T02:38:42.391Z,16.75
2023-04-09T02:41:25.917Z,17.55
2023-04-09T02:44:08.590Z,16.98
2023-04-09T02:46:52.080Z,16.08
2023-04-09T02:49:35.056Z,17.70
2023-04-09T02:52:20.166Z,19.05
2023-04-09T02:55:03.478Z,18.67
2023-04-09T02:57:46.061Z,17.13
2023-04-09T03:00:28.756Z,16.90
2023-04-09T03:03:12.321Z,18.05
2023-04-09T03:05:55.242Z,17.67
2023-04-09T03:08:39.208Z,16.63
2023-04-09T03:11:21.860Z,18.23
2023-04-09T03:14:04.435Z,17.30
2023-04-09T03:16:47.118Z,17.00
2023-04-09T03:19:29.718Z,16.65
2023-04-09T03:22:12.339Z,17.35
2023-04-09T03:24:57.014Z,16.75
2023-04-09T03:27:39.690Z,17.35
2023-04-09T03:30:22.763Z,16.60
2023-04-09T03:33:05.620Z,18.35
2023-04-09T03:35:52.628Z,16.13
2023-04-09T03:38:44.463Z,17.25
2023-04-09T03:41:40.232Z,17.55
2023-04-09T03:44:27.242Z,16.65
2023-04-09T03:47:22.075Z,16.95
2023-04-09T03:50:05.878Z,17.70
2023-04-09T03:53:00.869Z,16.83
2023-04-09T03:55:43.961Z,16.90
2023-04-09T03:58:35.526Z,17.20
2023-04-09T04:01:18.472Z,16.85
2023-04-09T04:04:10.290Z,16.08
2023-04-09T04:07:03.786Z,15.15
2023-04-09T04:09:52.941Z,15.15
2023-04-09T04:12:35.650Z,14.80
2023-04-09T04:15:27.233Z,13.88
2023-04-09T04:18:11.754Z,22.55
2023-04-09T04:20:59.396Z,23.15
2023-04-09T04:23:42.627Z,17.20
2023-04-09T04:26:38.821Z,16.33
2023-04-09T04:29:21.766Z,14.55
2023-04-09T04:32:17.364Z,15.02
2023-04-09T04:35:00.241Z,15.57
2023-04-09T04:37:42.817Z,13.70
2023-04-09T04:40:25.942Z,14.48
2023-04-09T04:43:14.051Z,19.65
2023-04-09T04:45:57.088Z,20.05
2023-04-09T04:48:43.196Z,14.65
2023-04-09T04:51:27.621Z,18.17
2023-04-09T04:54:18.410Z,19.92
2023-04-09T04:57:05.982Z,13.98
2023-04-09T04:59:53.096Z,13.40
2023-04-09T05:02:35.892Z,18.67
2023-04-09T05:05:47.048Z,16.17
2023-04-09T05:08:30.330Z,13.55
2023-04-09T05:11:15.081Z,17.52
2023-04-09T05:13:58.924Z,18.65
2023-04-09T05:16:41.615Z,14.30
2023-04-09T05:19:24.316Z,13.73
2023-04-09T05:22:14.631Z,15.63
2023-04-09T05:24:57.368Z,18.40
2023-04-09T05:27:40.861Z,14.07
2023-04-09T05:30:26.055Z,12.48
2023-04-09T05:33:09.764Z,18.75
2023-04-09T05:35:52.486Z,20.52
2023-04-09T05:38:36.699Z,15.70
2023-04-09T05:41:19.545Z,16.08
2023-04-09T05:44:34.571Z,18.52
2023-04-09T05:47:22.903Z,17.50
2023-04-09T05:50:28.363Z,16.52
2023-04-09T05:53:11.449Z,15.98
2023-04-09T05:55:58.490Z,14.02
2023-04-09T05:58:44.406Z,14.90
2023-04-09T06:01:27.224Z,14.93
2023-04-09T06:04:10.031Z,17.55
2023-04-09T06:06:52.755Z,15.35
2023-04-09T06:09:36.530Z,13.70
2023-04-09T06:12:20.459Z,16.77
2023-04-09T06:15:03.611Z,17.33
2023-04-09T06:17:46.409Z,16.55
2023-04-09T06:20:29.108Z,17.75
2023-04-09T06:23:11.812Z,17.13
2023-04-09T06:25:54.472Z,17.38
2023-04-09T06:28:38.518Z,16.98
2023-04-09T06:31:21.795Z,17.50
2023-04-09T06:34:04.433Z,17.25
2023-04-09T06:36:47.071Z,17.75
2023-04-09T06:39:29.663Z,17.27
2023-04-09T06:42:12.303Z,14.27
2023-04-09T06:45:09.629Z,15.13
2023-04-09T06:47:52.499Z,18.23
2023-04-09T06:50:35.136Z,17.52
2023-04-09T06:53:18.134Z,14.10
2023-04-09T06:56:00.923Z,14.38
2023-04-09T06:58:43.540Z,16.88
2023-04-09T07:01:28.013Z,17.05
2023-04-09T07:04:10.755Z,18.23
2023-04-09T07:06:54.812Z,16.15
2023-04-09T07:09:37.508Z,15.07
2023-04-09T07:12:27.153Z,17.45
2023-04-09T07:15:09.979Z,16.90
2023-04-09T07:17:53.938Z,15.00
2023-04-09T07:20:36.577Z,15.38
2023-04-09T07:23:19.212Z,17.95
2023-04-09T07:26:03.233Z,16.70
2023-04-09T07:28:45.862Z,14.90
2023-04-09T07:31:29.068Z,14.18
2023-04-09T07:34:13.066Z,18.23
2023-04-09T07:36:55.690Z,15.25
2023-04-09T07:39:38.374Z,14.05
2023-04-09T07:42:21.332Z,16.67
2023-04-09T07:45:03.914Z,16.23
2023-04-09T07:47:46.571Z,16.02
2023-04-09T07:50:30.825Z,16.30
2023-04-09T07:53:13.508Z,15.13
2023-04-09T07:55:56.419Z,17.02
2023-04-09T07:58:39.089Z,16.45
2023-04-09T08:01:24.636Z,16.85
2023-04-09T08:04:07.535Z,14.55
2023-04-09T08:06:51.820Z,14.70
2023-04-09T08:09:34.431Z,13.85
2023-04-09T08:12:17.130Z,14.93
2023-04-09T08:14:59.966Z,14.63
2023-04-09T08:17:42.609Z,15.77
2023-04-09T08:20:25.379Z,15.10
2023-04-09T08:23:09.478Z,15.93
2023-04-09T08:25:52.116Z,15.82
2023-04-09T08:28:34.714Z,15.40
2023-04-09T08:31:17.369Z,15.77
2023-04-09T08:34:00.153Z,13.98
2023-04-09T08:36:46.702Z,14.00
2023-04-09T08:39:30.774Z,13.43
2023-04-09T08:42:14.859Z,14.77
2023-04-09T08:44:57.471Z,14.13
2023-04-09T08:47:42.118Z,14.40
2023-04-09T08:50:24.832Z,14.40
2023-04-09T08:53:09.161Z,14.30
2023-04-09T08:55:53.426Z,14.20
2023-04-09T08:58:36.409Z,13.43
2023-04-09T09:01:19.957Z,13.27
2023-04-09T09:04:04.276Z,13.70
2023-04-09T09:06:47.151Z,14.50
2023-04-09T09:09:29.945Z,13.38
2023-04-09T09:12:30.340Z,13.68
2023-04-09T09:15:26.795Z,13.43
2023-04-09T09:18:09.460Z,13.38
2023-04-09T09:20:52.126Z,14.38
2023-04-09T09:23:35.596Z,14.13
2023-04-09T09:26:19.302Z,14.18
2023-04-09T09:29:05.735Z,15.57
2023-04-09T09:31:49.523Z,14.57
2023-04-09T09:34:32.247Z,13.75
2023-04-09T09:37:27.259Z,14.43
2023-04-09T09:40:10.689Z,14.57
2023-04-09T09:42:55.713Z,14.88
2023-04-09T09:45:39.729Z,15.43
2023-04-09T09:48:22.437Z,14.18
2023-04-09T09:51:08.886Z,15.25
2023-04-09T09:53:52.895Z,14.73
2023-04-09T09:56:37.024Z,15.13
2023-04-09T09:59:22.346Z,14.35
2023-04-09T10:02:07.448Z,14.43
2023-04-09T10:04:51.125Z,15.27
2023-04-09T10:07:34.006Z,14.48
2023-04-09T10:10:16.726Z,14.20
2023-04-09T10:12:59.747Z,15.05
2023-04-09T10:15:43.153Z,15.07
2023-04-09T10:18:27.425Z,14.77
2023-04-09T10:21:13.615Z,14.02
2023-04-09T10:23:56.637Z,13.82
2023-04-09T10:26:41.712Z,14.70
2023-04-09T10:29:28.628Z,13.48
2023-04-09T10:32:11.633Z,13.68
2023-04-09T10:34:57.543Z,12.77
2023-04-09T10:37:49.867Z,13.95
2023-04-09T10:40:32.799Z,14.35
2023-04-09T10:43:19.718Z,13.73
2023-04-09T10:46:02.473Z,13.45
2023-04-09T10:48:45.477Z,14.80
2023-04-09T10:51:29.448Z,14.13
2023-04-09T10:54:27.298Z,14.05
2023-04-09T10:57:14.625Z,13.73
2023-04-09T10:59:57.304Z,14.02
2023-04-09T11:02:54.834Z,14.13
2023-04-09T11:05:39.123Z,14.20
2023-04-09T11:08:23.151Z,13.55
2023-04-09T11:11:06.011Z,14.10
2023-04-09T11:13:48.712Z,14.38
2023-04-09T11:16:32.569Z,14.05
2023-04-09T11:19:15.506Z,14.50
2023-04-09T11:21:58.164Z,14.90
2023-04-09T11:24:46.574Z,15.07
2023-04-09T11:27:29.390Z,14.15
2023-04-09T11:30:12.271Z,14.00
2023-04-09T11:32:55.076Z,13.60
2023-04-09T11:35:37.817Z,14.85
2023-04-09T11:38:20.851Z,13.10
2023-04-09T11:41:04.872Z,14.45
2023-04-09T11:43:47.512Z,13.55
2023-04-09T11:46:30.708Z,14.93
2023-04-09T11:49:13.829Z,12.68
2023-04-09T11:51:58.367Z,13.10
2023-04-09T11:54:41.035Z,13.68
2023-04-09T11:57:25.018Z,13.48
2023-04-09T12:00:09.486Z,13.50
2023-04-09T12:02:52.935Z,14.32
2023-04-09T12:05:35.895Z,14.07
2023-04-09T12:08:23.514Z,14.10
2023-04-09T12:11:10.034Z,13.63
2023-04-09T12:14:01.243Z,14.20
2023-04-09T12:16:44.840Z,14.68
2023-04-09T12:19:27.990Z,13.55
2023-04-09T12:22:10.700Z,13.25
2023-04-09T12:24:53.302Z,13.82
2023-04-09T12:27:36.217Z,13.32
2023-04-09T12:30:20.154Z,13.55
2023-04-09T12:33:02.907Z,13.63
2023-04-09T12:35:45.589Z,13.27
2023-04-09T12:38:28.558Z,12.30
2023-04-09T12:41:11.246Z,14.38
2023-04-09T12:43:54.192Z,13.40
2023-04-09T12:46:38.226Z,12.70
2023-04-09T12:49:21.616Z,12.70
2023-04-09T12:52:04.264Z,13.85
2023-04-09T12:54:48.000Z,12.43
2023-04-09T12:57:31.503Z,13.75
2023-04-09T13:00:14.575Z,13.73
2023-04-09T13:02:58.679Z,13.10
2023-04-09T13:05:41.861Z,12.40
2023-04-09T13:08:24.451Z,13.07
2023-04-09T13:11:07.214Z,11.60
2023-04-09T13:13:49.816Z,12.52
2023-04-09T13:16:32.856Z,12.73
2023-04-09T13:19:16.816Z,11.98
2023-04-09T13:21:59.485Z,11.88
2023-04-09T13:24:43.149Z,13.07
2023-04-09T13:27:26.087Z,13.95
2023-04-09T13:30:09.611Z,13.30
2023-04-09T13:32:52.264Z,14.27
2023-04-09T13:35:36.348Z,14.13
2023-04-09T13:38:19.233Z,13.82
2023-04-09T13:41:01.824Z,12.80
2023-04-09T13:43:45.158Z,13.50
2023-04-09T13:46:27.878Z,12.88
2023-04-09T13:49:10.570Z,13.60
2023-04-09T13:51:55.718Z,12.07
2023-04-09T13:54:38.521Z,12.15
2023-04-09T13:57:21.307Z,13.25
2023-04-09T14:00:05.712Z,12.95
2023-04-09T14:02:49.004Z,12.85
2023-04-09T14:05:32.328Z,12.48
2023-04-09T14:08:16.437Z,12.32
2023-04-09T14:10:59.173Z,13.05
2023-04-09T14:13:41.821Z,12.48
2023-04-09T14:16:24.539Z,12.13
2023-04-09T14:19:07.344Z,12.82
2023-04-09T14:21:53.147Z,12.32
2023-04-09T14:24:40.024Z,11.90
2023-04-09T14:27:23.717Z,12.48
2023-04-09T14:30:07.765Z,12.77
2023-04-09T14:32:50.684Z,11.48
2023-04-09T14:35:33.417Z,11.52
2023-04-09T14:38:16.497Z,11.52
2023-04-09T14:41:00.836Z,11.35
2023-04-09T14:43:43.533Z,11.40
2023-04-09T14:46:26.208Z,10.95
2023-04-09T14:49:09.053Z,11.70
2023-04-09T14:51:51.983Z,12.27
2023-04-09T14:54:34.838Z,12.27
2023-04-09T14:57:18.835Z,11.82
2023-04-09T15:00:01.886Z,12.00
2023-04-09T15:02:44.756Z,11.65
2023-04-09T15:05:27.630Z,12.48
2023-04-09T15:08:10.348Z,11.95
2023-04-09T15:10:53.023Z,11.93
2023-04-09T15:13:37.059Z,12.10
2023-04-09T15:16:22.932Z,12.15
2023-04-09T15:19:05.660Z,11.38
2023-04-09T15:21:48.298Z,10.88
2023-04-09T15:24:30.941Z,11.25
2023-04-09T15:27:13.641Z,11.40
2023-04-09T15:29:57.711Z,11.10
2023-04-09T15:32:40.411Z,13.68
2023-04-09T15:35:26.510Z,11.35
2023-04-09T15:38:09.259Z,12.75
2023-04-09T15:40:51.911Z,11.13
2023-04-09T15:43:34.521Z,13.05
2023-04-09T15:46:18.662Z,12.05
2023-04-09T15:49:01.485Z,13.25
2023-04-09T15:51:44.238Z,12.40
2023-04-09T15:54:27.201Z,12.73
2023-04-09T15:57:09.895Z,13.93
2023-04-09T15:59:53.334Z,11.68
2023-04-09T16:02:38.696Z,12.27
2023-04-09T16:05:21.486Z,11.52
2023-04-09T16:08:04.254Z,11.80
2023-04-09T16:10:46.933Z,11.68
2023-04-09T16:13:29.659Z,11.57
2023-04-09T16:16:12.422Z,11.57
2023-04-09T16:18:56.757Z,12.38
2023-04-09T16:21:43.701Z,11.52
2023-04-09T16:24:27.112Z,13.15
2023-04-09T16:27:10.044Z,11.95
2023-04-09T16:29:53.154Z,12.27
2023-04-09T16:32:35.859Z,11.32
2023-04-09T16:35:20.000Z,11.48
2023-04-09T16:38:02.663Z,13.02
2023-04-09T16:40:45.543Z,11.93
2023-04-09T16:43:28.230Z,11.85
2023-04-09T16:46:10.913Z,12.10
2023-04-09T16:48:53.809Z,12.63
2023-04-09T16:51:38.041Z,12.40
2023-04-09T16:54:20.830Z,13.00
2023-04-09T16:57:03.462Z,12.98
2023-04-09T16:59:46.124Z,13.25
2023-04-09T17:02:28.795Z,12.48
2023-04-09T17:05:11.467Z,12.57
2023-04-09T17:07:55.451Z,13.65
2023-04-09T17:10:38.078Z,12.93
2023-04-09T17:13:20.686Z,12.73
2023-04-09T17:16:03.789Z,21.23
2023-04-09T17:18:47.072Z,16.13
2023-04-09T17:21:29.701Z,12.63
2023-04-09T17:24:13.746Z,12.55
2023-04-09T17:26:56.642Z,15.00
2023-04-09T17:29:39.322Z,14.10
2023-04-09T17:32:22.000Z,12.80
2023-04-09T17:35:06.982Z,17.67
2023-04-09T17:37:49.815Z,19.65
2023-04-09T17:40:33.804Z,13.15
2023-04-09T17:43:17.608Z,16.52
2023-04-09T17:46:00.683Z,23.30
2023-04-09T17:48:43.326Z,31.48
2023-04-09T17:51:26.952Z,13.68
2023-04-09T17:54:09.742Z,11.77
2023-04-09T17:56:53.776Z,16.50
2023-04-09T17:59:36.758Z,13.80
2023-04-09T18:02:19.625Z,14.23
2023-04-09T18:05:02.762Z,13.38
2023-04-09T18:07:45.803Z,16.75
2023-04-09T18:10:28.484Z,14.00
2023-04-09T18:13:12.506Z,15.10
2023-04-09T18:15:55.299Z,19.98
2023-04-09T18:18:37.953Z,19.30
2023-04-09T18:21:20.639Z,11.55
2023-04-09T18:24:03.978Z,9.45
2023-04-09T18:26:46.663Z,13.48
2023-04-09T18:29:30.892Z,13.75
2023-04-09T18:32:13.576Z,14.30
2023-04-09T18:34:56.989Z,13.18
2023-04-09T18:37:39.695Z,14.20
2023-04-09T18:40:22.305Z,13.90
2023-04-09T18:43:05.021Z,14.68
2023-04-09T18:45:49.472Z,13.32
2023-04-09T18:48:32.910Z,13.50
2023-04-09T18:51:15.582Z,17.83
2023-04-09T18:54:00.525Z,14.13
2023-04-09T18:56:45.381Z,15.25
2023-04-09T18:59:29.181Z,15.35
2023-04-09T19:02:13.166Z,17.67
2023-04-09T19:04:55.907Z,19.00
2023-04-09T19:07:39.494Z,12.23
2023-04-09T19:10:22.418Z,11.38
2023-04-09T19:13:05.081Z,13.65
2023-04-09T19:15:47.799Z,16.15
2023-04-09T19:18:33.130Z,18.17
2023-04-09T19:21:16.065Z,12.90
2023-04-09T19:24:00.076Z,13.68
2023-04-09T19:26:42.798Z,12.55
2023-04-09T19:29:25.518Z,13.45
2023-04-09T19:32:09.295Z,12.70
2023-04-09T19:34:53.340Z,12.60
2023-04-09T19:37:36.198Z,12.00
2023-04-09T19:40:18.994Z,12.40
2023-04-09T19:43:01.747Z,13.27
2023-04-09T19:45:44.446Z,12.05
2023-04-09T19:48:27.381Z,14.30
2023-04-09T19:51:16.340Z,12.90
2023-04-09T19:53:59.053Z,12.50
2023-04-09T19:56:42.408Z,12.65
2023-04-09T19:59:25.059Z,12.88
2023-04-09T20:02:08.121Z,11.55
2023-04-09T20:04:52.286Z,12.57
2023-04-09T20:07:36.391Z,11.88
2023-04-09T20:10:19.701Z,11.57
2023-04-09T20:13:02.699Z,12.60
2023-04-09T20:15:45.405Z,12.27
2023-04-09T20:18:28.613Z,11.82
2023-04-09T20:21:14.196Z,11.60
2023-04-09T20:23:58.259Z,12.15
2023-04-09T20:26:41.230Z,12.10
2023-04-09T20:29:23.888Z,12.10
2023-04-09T20:32:06.656Z,12.25
2023-04-09T20:34:49.573Z,11.50
2023-04-09T20:37:32.240Z,11.95
2023-04-09T20:40:16.368Z,12.23
2023-04-09T20:42:59.293Z,11.98
2023-04-09T20:45:41.943Z,12.15
2023-04-09T20:48:24.641Z,10.73
2023-04-09T20:51:09.306Z,10.75
2023-04-09T20:53:51.986Z,10.27
2023-04-09T20:56:36.020Z,11.20
2023-04-09T20:59:19.300Z,10.70
2023-04-09T21:02:02.070Z,12.27
2023-04-09T21:04:44.843Z,10.93
2023-04-09T21:07:27.484Z,10.93
2023-04-09T21:10:10.374Z,11.35
2023-04-09T21:12:54.391Z,11.70
2023-04-09T21:15:37.057Z,11.45
2023-04-09T21:18:19.714Z,12.20
2023-04-09T21:21:05.690Z,12.98
2023-04-09T21:23:48.335Z,13.32
2023-04-09T21:26:44.906Z,13.07
2023-04-09T21:29:33.816Z,10.77
2023-04-09T21:32:17.464Z,11.77
2023-04-09T21:35:00.130Z,11.95
2023-04-09T21:37:42.808Z,11.10
2023-04-09T21:40:25.445Z,11.45
2023-04-09T21:43:09.085Z,10.85
2023-04-09T21:45:53.078Z,11.15
2023-04-09T21:48:35.837Z,10.77
2023-04-09T21:51:18.478Z,11.02
2023-04-09T21:54:05.110Z,10.95
2023-04-09T21:56:47.718Z,10.77
2023-04-09T21:59:30.403Z,10.27
2023-04-09T22:02:14.461Z,10.15
2023-04-09T22:04:57.256Z,10.93
2023-04-09T22:07:40.496Z,11.07
2023-04-09T22:10:23.356Z,10.13
2023-04-09T22:13:05.984Z,10.50
2023-04-09T22:15:48.648Z,10.75
2023-04-09T22:18:32.645Z,10.57
2023-04-09T22:21:15.756Z,10.23
2023-04-09T22:23:58.400Z,11.23
2023-04-09T22:26:46.400Z,12.70
2023-04-09T22:29:29.347Z,14.23
2023-04-09T22:32:12.002Z,12.55
2023-04-09T22:34:56.016Z,11.50
2023-04-09T22:37:39.798Z,11.05
2023-04-09T22:40:22.411Z,10.68
2023-04-09T22:43:07.640Z,10.93
2023-04-09T22:45:51.811Z,10.05
2023-04-09T22:48:40.709Z,10.27
2023-04-09T22:51:27.989Z,10.77
2023-04-09T22:54:10.787Z,10.60
2023-04-09T22:56:53.448Z,10.57
2023-04-09T23:02:21.784Z,10.05
2023-04-09T23:05:04.768Z,10.50
2023-04-09T23:07:49.286Z,9.40
2023-04-09T23:10:32.413Z,10.13
2023-04-09T23:13:18.065Z,9.80
2023-04-09T23:16:00.898Z,9.35
2023-04-09T23:18:43.607Z,10.40
2023-04-09T23:21:26.777Z,10.48
2023-04-09T23:24:10.716Z,10.00
2023-04-09T23:26:53.364Z,9.90
2023-04-09T23:29:35.953Z,9.82
2023-04-09T23:32:18.638Z,9.98
2023-04-09T23:35:01.591Z,9.57
2023-04-09T23:37:44.519Z,9.45
2023-04-09T23:40:28.509Z,9.50
2023-04-09T23:43:11.166Z,9.70
2023-04-09T23:45:53.778Z,9.88
2023-04-09T23:48:36.435Z,9.80
2023-04-09T23:51:19.291Z,9.55
2023-04-09T23:54:02.796Z,10.25
2023-04-09T23:56:47.057Z,10.10
2023-04-09T23:59:33.778Z,9.57
